PWSweather.com
Personal Weather Stations
Station Observations
METEOC500
Santo Antonio, FunchalPT 2020

Santo AntonioFunchalPT 2020

Lat: 32.678227, Lon: -16.945054

Elevation: 1669.94751

Station Type: WH Series

High Low Average
Temperature 71.8°F22.1°C 62.1°F16.7°C 66.6°F19.2°C
Dew Point 63.7°F17.6°C 55.2°F12.9°C 61.1°F16.2°C
Winds 9.2 mph 14.8 kmh Calm Calm 3.0 mph SW4.8 kmh SW
Wind Gusts 15.0 mph24.1 kmh 2.5 mph4.0 kmh 8.0 mph12.9 kmh
Humidity 90% 72% 83%
Pressure 30.21 in1023.0 mb 30.13 in1020.3 mb -
Precipitation 0.00 in0.0 mm - -
Hour Temp Dew Point Humidity Winds Wind Gusts Pressure Precip Precip Rate Daily Precip Total
12:06 AM 63.5°F17.5°C 58.6°F14.8°C 84% Calm Calm 4.9 mph7.9 kmh 30.21 in1023.0 mb 0.00 in0.0 mm 0.00 in0.0 mm 0.00 in0.0 mm
12:21 AM 63.5°F17.5°C 59.9°F15.5°C 88% Calm Calm 4.9 mph7.9 kmh 30.21 in1023.0 mb 0.00 in0.0 mm 0.00 in0.0 mm 0.00 in0.0 mm
12:36 AM 64.0°F17.8°C 60.8°F16.0°C 89% Calm Calm 2.5 mph4.0 kmh 30.21 in1023.0 mb 0.00 in0.0 mm 0.00 in0.0 mm 0.00 in0.0 mm
12:51 AM 63.9°F17.7°C 60.6°F15.9°C 89% Calm Calm 4.9 mph7.9 kmh 30.21 in1023.0 mb 0.00 in0.0 mm 0.00 in0.0 mm 0.00 in0.0 mm
01:06 AM 63.3°F17.4°C 59.4°F15.2°C 87% 2.5 mph NW4.0 kmh NW 4.9 mph7.9 kmh 30.21 in1023.0 mb 0.00 in0.0 mm 0.00 in0.0 mm 0.00 in0.0 mm
01:21 AM 63.5°F17.5°C 59.9°F15.5°C 88% Calm Calm 2.5 mph4.0 kmh 30.20 in1022.7 mb 0.00 in0.0 mm 0.00 in0.0 mm 0.00 in0.0 mm
01:36 AM 64.2°F17.9°C 61.2°F16.2°C 90% 4.0 mph NW6.4 kmh NW 4.9 mph7.9 kmh 30.20 in1022.7 mb 0.00 in0.0 mm 0.00 in0.0 mm 0.00 in0.0 mm
01:51 AM 64.4°F18.0°C 61.2°F16.2°C 89% 2.9 mph NW4.7 kmh NW 7.6 mph12.2 kmh 30.20 in1022.7 mb 0.00 in0.0 mm 0.00 in0.0 mm 0.00 in0.0 mm
02:06 AM 64.6°F18.1°C 61.3°F16.3°C 89% 3.4 mph N5.5 kmh N 7.6 mph12.2 kmh 30.19 in1022.4 mb 0.00 in0.0 mm 0.00 in0.0 mm 0.00 in0.0 mm
02:21 AM 64.6°F18.1°C 61.0°F16.1°C 88% 0.9 mph NW1.4 kmh NW 4.9 mph7.9 kmh 30.19 in1022.4 mb 0.00 in0.0 mm 0.00 in0.0 mm 0.00 in0.0 mm
02:36 AM 64.4°F18.0°C 60.1°F15.6°C 86% Calm Calm 2.5 mph4.0 kmh 30.18 in1022.0 mb 0.00 in0.0 mm 0.00 in0.0 mm 0.00 in0.0 mm
02:51 AM 64.2°F17.9°C 59.9°F15.5°C 86% 2.9 mph NNW4.7 kmh NNW 7.6 mph12.2 kmh 30.19 in1022.4 mb 0.00 in0.0 mm 0.00 in0.0 mm 0.00 in0.0 mm
03:06 AM 64.4°F18.0°C 59.7°F15.4°C 85% 4.5 mph NNW7.2 kmh NNW 7.6 mph12.2 kmh 30.18 in1022.0 mb 0.00 in0.0 mm 0.00 in0.0 mm 0.00 in0.0 mm
03:21 AM 64.8°F18.2°C 60.1°F15.6°C 85% 0.7 mph NW1.1 kmh NW 7.6 mph12.2 kmh 30.16 in1021.3 mb 0.00 in0.0 mm 0.00 in0.0 mm 0.00 in0.0 mm
03:37 AM 64.8°F18.2°C 60.4°F15.8°C 86% Calm Calm 2.5 mph4.0 kmh 30.16 in1021.3 mb 0.00 in0.0 mm 0.00 in0.0 mm 0.00 in0.0 mm
03:52 AM 64.2°F17.9°C 59.5°F15.3°C 85% 4.7 mph NNW7.6 kmh NNW 7.6 mph12.2 kmh 30.16 in1021.3 mb 0.00 in0.0 mm 0.00 in0.0 mm 0.00 in0.0 mm
04:07 AM 63.5°F17.5°C 58.8°F14.9°C 85% 2.2 mph NNW3.5 kmh NNW 7.6 mph12.2 kmh 30.16 in1021.3 mb 0.00 in0.0 mm 0.00 in0.0 mm 0.00 in0.0 mm
04:22 AM 63.3°F17.4°C 58.5°F14.7°C 84% 2.9 mph NNW4.7 kmh NNW 7.6 mph12.2 kmh 30.16 in1021.3 mb 0.00 in0.0 mm 0.00 in0.0 mm 0.00 in0.0 mm
04:37 AM 63.3°F17.4°C 58.5°F14.7°C 84% 2.5 mph N4.0 kmh N 4.9 mph7.9 kmh 30.15 in1021.0 mb 0.00 in0.0 mm 0.00 in0.0 mm 0.00 in0.0 mm
04:52 AM 62.8°F17.1°C 57.2°F14.0°C 82% 2.5 mph NNW4.0 kmh NNW 4.9 mph7.9 kmh 30.16 in1021.3 mb 0.00 in0.0 mm 0.00 in0.0 mm 0.00 in0.0 mm
05:07 AM 62.4°F16.9°C 57.2°F14.0°C 83% 1.3 mph NNW2.1 kmh NNW 4.9 mph7.9 kmh 30.16 in1021.3 mb 0.00 in0.0 mm 0.00 in0.0 mm 0.00 in0.0 mm
05:22 AM 62.4°F16.9°C 56.8°F13.8°C 82% 3.1 mph NNW5.0 kmh NNW 4.9 mph7.9 kmh 30.16 in1021.3 mb 0.00 in0.0 mm 0.00 in0.0 mm 0.00 in0.0 mm
05:37 AM 62.8°F17.1°C 57.9°F14.4°C 84% 3.4 mph NNW5.5 kmh NNW 4.9 mph7.9 kmh 30.16 in1021.3 mb 0.00 in0.0 mm 0.00 in0.0 mm 0.00 in0.0 mm
05:52 AM 62.8°F17.1°C 57.9°F14.4°C 84% 1.8 mph NNW2.9 kmh NNW 4.9 mph7.9 kmh 30.16 in1021.3 mb 0.00 in0.0 mm 0.00 in0.0 mm 0.00 in0.0 mm
06:07 AM 63.0°F17.2°C 58.5°F14.7°C 85% 3.4 mph NNW5.5 kmh NNW 4.9 mph7.9 kmh 30.16 in1021.3 mb 0.00 in0.0 mm 0.00 in0.0 mm 0.00 in0.0 mm
06:22 AM 63.0°F17.2°C 58.6°F14.8°C 86% 4.0 mph NNW6.4 kmh NNW 7.6 mph12.2 kmh 30.17 in1021.7 mb 0.00 in0.0 mm 0.00 in0.0 mm 0.00 in0.0 mm
06:37 AM 63.0°F17.2°C 58.6°F14.8°C 86% 3.1 mph NNW5.0 kmh NNW 7.6 mph12.2 kmh 30.17 in1021.7 mb 0.00 in0.0 mm 0.00 in0.0 mm 0.00 in0.0 mm
06:52 AM 62.6°F17.0°C 57.7°F14.3°C 84% 3.8 mph NNW6.1 kmh NNW 4.9 mph7.9 kmh 30.17 in1021.7 mb 0.00 in0.0 mm 0.00 in0.0 mm 0.00 in0.0 mm
07:07 AM 62.1°F16.7°C 56.5°F13.6°C 82% 2.2 mph N3.5 kmh N 7.6 mph12.2 kmh 30.18 in1022.0 mb 0.00 in0.0 mm 0.00 in0.0 mm 0.00 in0.0 mm
07:22 AM 62.1°F16.7°C 55.8°F13.2°C 80% 2.9 mph NNW4.7 kmh NNW 4.9 mph7.9 kmh 30.18 in1022.0 mb 0.00 in0.0 mm 0.00 in0.0 mm 0.00 in0.0 mm
07:37 AM 62.2°F16.8°C 55.2°F12.9°C 78% 0.7 mph NNW1.1 kmh NNW 4.9 mph7.9 kmh 30.18 in1022.0 mb 0.00 in0.0 mm 0.00 in0.0 mm 0.00 in0.0 mm
07:53 AM 62.8°F17.1°C 55.8°F13.2°C 78% 0.2 mph NNW0.3 kmh NNW 4.9 mph7.9 kmh 30.19 in1022.4 mb 0.00 in0.0 mm 0.00 in0.0 mm 0.00 in0.0 mm
08:08 AM 63.5°F17.5°C 56.5°F13.6°C 78% 0.9 mph N1.4 kmh N 4.9 mph7.9 kmh 30.19 in1022.4 mb 0.00 in0.0 mm 0.00 in0.0 mm 0.00 in0.0 mm
08:23 AM 64.6°F18.1°C 58.3°F14.6°C 80% 0.2 mph NNW0.3 kmh NNW 4.9 mph7.9 kmh 30.19 in1022.4 mb 0.00 in0.0 mm 0.00 in0.0 mm 0.00 in0.0 mm
08:38 AM 65.7°F18.7°C 58.6°F14.8°C 78% 0.2 mph SW0.3 kmh SW 2.5 mph4.0 kmh 30.19 in1022.4 mb 0.00 in0.0 mm 0.00 in0.0 mm 0.00 in0.0 mm
08:53 AM 68.0°F20.0°C 60.1°F15.6°C 76% 3.1 mph SE5.0 kmh SE 4.9 mph7.9 kmh 30.20 in1022.7 mb 0.00 in0.0 mm 0.00 in0.0 mm 0.00 in0.0 mm
09:08 AM 69.8°F21.0°C 62.6°F17.0°C 78% 1.3 mph SSE2.1 kmh SSE 4.9 mph7.9 kmh 30.20 in1022.7 mb 0.00 in0.0 mm 0.00 in0.0 mm 0.00 in0.0 mm
09:23 AM 70.0°F21.1°C 62.8°F17.1°C 78% 3.8 mph SSE6.1 kmh SSE 10.1 mph16.3 kmh 30.21 in1023.0 mb 0.00 in0.0 mm 0.00 in0.0 mm 0.00 in0.0 mm
09:38 AM 70.3°F21.3°C 62.4°F16.9°C 76% 7.2 mph SSE11.6 kmh SSE 10.1 mph16.3 kmh 30.21 in1023.0 mb 0.00 in0.0 mm 0.00 in0.0 mm 0.00 in0.0 mm
09:53 AM 70.7°F21.5°C 62.4°F16.9°C 75% 1.6 mph S2.6 kmh S 7.6 mph12.2 kmh 30.21 in1023.0 mb 0.00 in0.0 mm 0.00 in0.0 mm 0.00 in0.0 mm
10:08 AM 70.5°F21.4°C 63.3°F17.4°C 78% 1.8 mph S2.9 kmh S 10.1 mph16.3 kmh 30.21 in1023.0 mb 0.00 in0.0 mm 0.00 in0.0 mm 0.00 in0.0 mm
10:23 AM 70.3°F21.3°C 62.4°F16.9°C 76% 4.0 mph S6.4 kmh S 10.1 mph16.3 kmh 30.21 in1023.0 mb 0.00 in0.0 mm 0.00 in0.0 mm 0.00 in0.0 mm
10:38 AM 70.5°F21.4°C 63.7°F17.6°C 79% 1.6 mph S2.6 kmh S 10.1 mph16.3 kmh 30.21 in1023.0 mb 0.00 in0.0 mm 0.00 in0.0 mm 0.00 in0.0 mm
10:53 AM 69.4°F20.8°C 63.7°F17.6°C 82% 3.4 mph SE5.5 kmh SE 10.1 mph16.3 kmh 30.21 in1023.0 mb 0.00 in0.0 mm 0.00 in0.0 mm 0.00 in0.0 mm
11:08 AM 68.2°F20.1°C 62.4°F16.9°C 82% Calm Calm 7.6 mph12.2 kmh 30.20 in1022.7 mb 0.00 in0.0 mm 0.00 in0.0 mm 0.00 in0.0 mm
11:23 AM 68.5°F20.3°C 61.3°F16.3°C 78% 4.7 mph SSE7.6 kmh SSE 10.1 mph16.3 kmh 30.20 in1022.7 mb 0.00 in0.0 mm 0.00 in0.0 mm 0.00 in0.0 mm
11:38 AM 69.6°F20.9°C 62.4°F16.9°C 78% 3.1 mph SSE5.0 kmh SSE 10.1 mph16.3 kmh 30.19 in1022.4 mb 0.00 in0.0 mm 0.00 in0.0 mm 0.00 in0.0 mm
11:53 AM 70.7°F21.5°C 61.2°F16.2°C 72% 4.7 mph S7.6 kmh S 10.1 mph16.3 kmh 30.19 in1022.4 mb 0.00 in0.0 mm 0.00 in0.0 mm 0.00 in0.0 mm
12:09 PM 71.8°F22.1°C 63.5°F17.5°C 75% 7.8 mph SE12.6 kmh SE 10.1 mph16.3 kmh 30.18 in1022.0 mb 0.00 in0.0 mm 0.00 in0.0 mm 0.00 in0.0 mm
12:24 PM 71.4°F21.9°C 63.1°F17.3°C 75% 4.5 mph SE7.2 kmh SE 10.1 mph16.3 kmh 30.18 in1022.0 mb 0.00 in0.0 mm 0.00 in0.0 mm 0.00 in0.0 mm
12:39 PM 70.9°F21.6°C 63.0°F17.2°C 76% 1.8 mph SSE2.9 kmh SSE 10.1 mph16.3 kmh 30.17 in1021.7 mb 0.00 in0.0 mm 0.00 in0.0 mm 0.00 in0.0 mm
12:54 PM 70.7°F21.5°C 63.1°F17.3°C 77% 0.7 mph SSW1.1 kmh SSW 10.1 mph16.3 kmh 30.17 in1021.7 mb 0.00 in0.0 mm 0.00 in0.0 mm 0.00 in0.0 mm
01:09 PM 71.1°F21.7°C 61.9°F16.6°C 73% 4.9 mph SSE7.9 kmh SSE 10.1 mph16.3 kmh 30.17 in1021.7 mb 0.00 in0.0 mm 0.00 in0.0 mm 0.00 in0.0 mm
01:24 PM 71.4°F21.9°C 62.8°F17.1°C 74% 8.1 mph SE13.0 kmh SE 12.5 mph20.1 kmh 30.16 in1021.3 mb 0.00 in0.0 mm 0.00 in0.0 mm 0.00 in0.0 mm
01:39 PM 71.4°F21.9°C 63.5°F17.5°C 76% 2.5 mph SW4.0 kmh SW 12.5 mph20.1 kmh 30.16 in1021.3 mb 0.00 in0.0 mm 0.00 in0.0 mm 0.00 in0.0 mm
01:54 PM 71.4°F21.9°C 63.1°F17.3°C 75% 6.0 mph E9.7 kmh E 15.0 mph24.1 kmh 30.16 in1021.3 mb 0.00 in0.0 mm 0.00 in0.0 mm 0.00 in0.0 mm
02:09 PM 71.2°F21.8°C 63.7°F17.6°C 77% 4.7 mph S7.6 kmh S 12.5 mph20.1 kmh 30.16 in1021.3 mb 0.00 in0.0 mm 0.00 in0.0 mm 0.00 in0.0 mm
02:24 PM 70.9°F21.6°C 63.0°F17.2°C 76% 6.9 mph SSE11.1 kmh SSE 12.5 mph20.1 kmh 30.15 in1021.0 mb 0.00 in0.0 mm 0.00 in0.0 mm 0.00 in0.0 mm
02:39 PM 71.1°F21.7°C 63.5°F17.5°C 77% 4.9 mph SE7.9 kmh SE 12.5 mph20.1 kmh 30.15 in1021.0 mb 0.00 in0.0 mm 0.00 in0.0 mm 0.00 in0.0 mm
02:54 PM 70.7°F21.5°C 63.1°F17.3°C 77% 9.2 mph SSW14.8 kmh SSW 15.0 mph24.1 kmh 30.15 in1021.0 mb 0.00 in0.0 mm 0.00 in0.0 mm 0.00 in0.0 mm
03:09 PM 70.7°F21.5°C 63.1°F17.3°C 77% 4.9 mph SE7.9 kmh SE 12.5 mph20.1 kmh 30.15 in1021.0 mb 0.00 in0.0 mm 0.00 in0.0 mm 0.00 in0.0 mm
03:24 PM 70.9°F21.6°C 63.0°F17.2°C 76% 0.7 mph S1.1 kmh S 12.5 mph20.1 kmh 30.14 in1020.7 mb 0.00 in0.0 mm 0.00 in0.0 mm 0.00 in0.0 mm
03:39 PM 71.1°F21.7°C 63.5°F17.5°C 77% 5.6 mph E9.0 kmh E 10.1 mph16.3 kmh 30.13 in1020.3 mb 0.00 in0.0 mm 0.00 in0.0 mm 0.00 in0.0 mm
03:54 PM 70.7°F21.5°C 63.5°F17.5°C 78% 5.4 mph SSE8.7 kmh SSE 15.0 mph24.1 kmh 30.13 in1020.3 mb 0.00 in0.0 mm 0.00 in0.0 mm 0.00 in0.0 mm
04:10 PM 70.3°F21.3°C 63.1°F17.3°C 78% 7.8 mph SSW12.6 kmh SSW 12.5 mph20.1 kmh 30.14 in1020.7 mb 0.00 in0.0 mm 0.00 in0.0 mm 0.00 in0.0 mm
04:25 PM 70.2°F21.2°C 63.3°F17.4°C 79% 4.0 mph E6.4 kmh E 10.1 mph16.3 kmh 30.14 in1020.7 mb 0.00 in0.0 mm 0.00 in0.0 mm 0.00 in0.0 mm
04:40 PM 69.8°F21.0°C 63.3°F17.4°C 80% 7.6 mph S12.2 kmh S 10.1 mph16.3 kmh 30.13 in1020.3 mb 0.00 in0.0 mm 0.00 in0.0 mm 0.00 in0.0 mm
04:55 PM 69.3°F20.7°C 63.5°F17.5°C 82% 0.7 mph SW1.1 kmh SW 12.5 mph20.1 kmh 30.14 in1020.7 mb 0.00 in0.0 mm 0.00 in0.0 mm 0.00 in0.0 mm
05:10 PM 68.5°F20.3°C 63.1°F17.3°C 83% 4.0 mph SE6.4 kmh SE 10.1 mph16.3 kmh 30.13 in1020.3 mb 0.00 in0.0 mm 0.00 in0.0 mm 0.00 in0.0 mm
05:25 PM 67.6°F19.8°C 62.6°F17.0°C 84% 4.7 mph SSW7.6 kmh SSW 7.6 mph12.2 kmh 30.13 in1020.3 mb 0.00 in0.0 mm 0.00 in0.0 mm 0.00 in0.0 mm
05:40 PM 67.3°F19.6°C 62.6°F17.0°C 85% 1.6 mph S2.6 kmh S 10.1 mph16.3 kmh 30.14 in1020.7 mb 0.00 in0.0 mm 0.00 in0.0 mm 0.00 in0.0 mm
05:55 PM 67.5°F19.7°C 62.4°F16.9°C 84% 5.4 mph SE8.7 kmh SE 10.1 mph16.3 kmh 30.14 in1020.7 mb 0.00 in0.0 mm 0.00 in0.0 mm 0.00 in0.0 mm
06:10 PM 67.3°F19.6°C 62.6°F17.0°C 85% 6.0 mph SE9.7 kmh SE 10.1 mph16.3 kmh 30.14 in1020.7 mb 0.00 in0.0 mm 0.00 in0.0 mm 0.00 in0.0 mm
06:25 PM 66.9°F19.4°C 62.6°F17.0°C 86% 2.9 mph ESE4.7 kmh ESE 10.1 mph16.3 kmh 30.15 in1021.0 mb 0.00 in0.0 mm 0.00 in0.0 mm 0.00 in0.0 mm
06:40 PM 66.6°F19.2°C 62.6°F17.0°C 87% 3.8 mph SE6.1 kmh SE 10.1 mph16.3 kmh 30.14 in1020.7 mb 0.00 in0.0 mm 0.00 in0.0 mm 0.00 in0.0 mm
06:55 PM 66.0°F18.9°C 62.4°F16.9°C 88% 2.2 mph ESE3.5 kmh ESE 10.1 mph16.3 kmh 30.14 in1020.7 mb 0.00 in0.0 mm 0.00 in0.0 mm 0.00 in0.0 mm
07:10 PM 65.8°F18.8°C 62.2°F16.8°C 88% 2.2 mph SE3.5 kmh SE 7.6 mph12.2 kmh 30.15 in1021.0 mb 0.00 in0.0 mm 0.00 in0.0 mm 0.00 in0.0 mm
07:25 PM 65.8°F18.8°C 62.2°F16.8°C 88% 0.9 mph ESE1.4 kmh ESE 7.6 mph12.2 kmh 30.15 in1021.0 mb 0.00 in0.0 mm 0.00 in0.0 mm 0.00 in0.0 mm
07:40 PM 65.7°F18.7°C 62.1°F16.7°C 88% Calm Calm 7.6 mph12.2 kmh 30.15 in1021.0 mb 0.00 in0.0 mm 0.00 in0.0 mm 0.00 in0.0 mm
07:55 PM 65.7°F18.7°C 61.7°F16.5°C 87% 0.9 mph SSE1.4 kmh SSE 4.9 mph7.9 kmh 30.16 in1021.3 mb 0.00 in0.0 mm 0.00 in0.0 mm 0.00 in0.0 mm
08:11 PM 65.7°F18.7°C 61.7°F16.5°C 87% Calm Calm 4.9 mph7.9 kmh 30.16 in1021.3 mb 0.00 in0.0 mm 0.00 in0.0 mm 0.00 in0.0 mm
08:26 PM 65.5°F18.6°C 61.9°F16.6°C 88% Calm Calm 4.9 mph7.9 kmh 30.16 in1021.3 mb 0.00 in0.0 mm 0.00 in0.0 mm 0.00 in0.0 mm
08:41 PM 65.5°F18.6°C 61.9°F16.6°C 88% Calm Calm 4.9 mph7.9 kmh 30.16 in1021.3 mb 0.00 in0.0 mm 0.00 in0.0 mm 0.00 in0.0 mm
08:56 PM 65.5°F18.6°C 61.9°F16.6°C 88% Calm Calm 4.9 mph7.9 kmh 30.17 in1021.7 mb 0.00 in0.0 mm 0.00 in0.0 mm 0.00 in0.0 mm
09:11 PM 65.5°F18.6°C 61.9°F16.6°C 88% 0.2 mph SE0.3 kmh SE 7.6 mph12.2 kmh 30.17 in1021.7 mb 0.00 in0.0 mm 0.00 in0.0 mm 0.00 in0.0 mm
09:26 PM 65.5°F18.6°C 61.9°F16.6°C 88% Calm Calm 4.9 mph7.9 kmh 30.18 in1022.0 mb 0.00 in0.0 mm 0.00 in0.0 mm 0.00 in0.0 mm
09:41 PM 65.5°F18.6°C 61.9°F16.6°C 88% Calm Calm 7.6 mph12.2 kmh 30.19 in1022.4 mb 0.00 in0.0 mm 0.00 in0.0 mm 0.00 in0.0 mm
09:56 PM 65.3°F18.5°C 61.7°F16.5°C 88% 2.5 mph SSE4.0 kmh SSE 4.9 mph7.9 kmh 30.18 in1022.0 mb 0.00 in0.0 mm 0.00 in0.0 mm 0.00 in0.0 mm
10:11 PM 65.3°F18.5°C 61.7°F16.5°C 88% 2.5 mph ESE4.0 kmh ESE 4.9 mph7.9 kmh 30.18 in1022.0 mb 0.00 in0.0 mm 0.00 in0.0 mm 0.00 in0.0 mm
10:26 PM 65.3°F18.5°C 61.7°F16.5°C 88% 1.6 mph SSE2.6 kmh SSE 4.9 mph7.9 kmh 30.19 in1022.4 mb 0.00 in0.0 mm 0.00 in0.0 mm 0.00 in0.0 mm
10:41 PM 65.3°F18.5°C 61.7°F16.5°C 88% 0.7 mph SSE1.1 kmh SSE 4.9 mph7.9 kmh 30.19 in1022.4 mb 0.00 in0.0 mm 0.00 in0.0 mm 0.00 in0.0 mm
10:56 PM 65.1°F18.4°C 61.5°F16.4°C 88% 0.9 mph SE1.4 kmh SE 4.9 mph7.9 kmh 30.18 in1022.0 mb 0.00 in0.0 mm 0.00 in0.0 mm 0.00 in0.0 mm
11:11 PM 65.1°F18.4°C 61.5°F16.4°C 88% Calm Calm 4.9 mph7.9 kmh 30.17 in1021.7 mb 0.00 in0.0 mm 0.00 in0.0 mm 0.00 in0.0 mm
11:26 PM 65.1°F18.4°C 61.5°F16.4°C 88% Calm Calm 2.5 mph4.0 kmh 30.17 in1021.7 mb 0.00 in0.0 mm 0.00 in0.0 mm 0.00 in0.0 mm
11:41 PM 64.9°F18.3°C 61.3°F16.3°C 88% Calm Calm 2.5 mph4.0 kmh 30.16 in1021.3 mb 0.00 in0.0 mm 0.00 in0.0 mm 0.00 in0.0 mm
11:56 PM 64.6°F18.1°C 60.3°F15.7°C 86% Calm Calm 2.5 mph4.0 kmh 30.17 in1021.7 mb 0.00 in0.0 mm 0.00 in0.0 mm 0.00 in0.0 mm